Time;durP1;ratioP1;P1;durP2;ratioP2;P2;SDS_P1;SDS_P2;PMS_P1;PMS_P2;Temp;Humidity;BMP_temperature;BMP_pressure;BME280_temperature;BME280_humidity;BME280_pressure;Samples;Min_cycle;Max_cycle;Signal;HPM_P1;HPM_P2
2021/10/04 00:00:23;;;;;;;3.13;1.20;;;11.60;99.90;;;;;;4951971;29;20027;-91
2021/10/04 00:02:49;;;;;;;2.80;1.30;;;11.50;99.90;;;;;;4935561;29;20504;-91
2021/10/04 00:05:16;;;;;;;3.70;1.40;;;11.60;99.90;;;;;;4936511;29;20682;-89
2021/10/04 00:07:42;;;;;;;2.88;1.30;;;11.50;99.90;;;;;;4928223;29;20466;-90
2021/10/04 00:10:12;;;;;;;2.97;1.33;;;11.50;99.90;;;;;;4929048;29;20035;-92
2021/10/04 00:12:43;;;;;;;2.05;1.20;;;11.50;99.90;;;;;;4919212;29;20118;-92
2021/10/04 00:15:13;;;;;;;4.72;1.55;;;11.50;99.90;;;;;;4934465;29;20035;-90
2021/10/04 00:17:39;;;;;;;3.80;1.77;;;11.50;99.90;;;;;;4935270;29;20038;-91
2021/10/04 00:20:08;;;;;;;4.45;1.80;;;11.50;99.90;;;;;;4935020;29;20277;-91
2021/10/04 00:22:36;;;;;;;5.32;2.00;;;11.50;99.90;;;;;;4950754;29;20019;-93
2021/10/04 00:25:03;;;;;;;6.05;2.10;;;11.50;99.90;;;;;;4933662;29;20023;-92
2021/10/04 00:27:29;;;;;;;7.05;2.00;;;11.50;99.90;;;;;;4952363;28;20015;-92
2021/10/04 00:29:55;;;;;;;3.72;1.83;;;11.50;99.90;;;;;;4935397;29;20036;-91
2021/10/04 00:32:26;;;;;;;2.80;1.35;;;11.40;99.90;;;;;;4935113;29;20042;-90
2021/10/04 00:34:52;;;;;;;2.50;1.50;;;11.40;99.90;;;;;;4953699;29;20035;-91
2021/10/04 00:37:18;;;;;;;6.63;1.70;;;11.50;99.90;;;;;;4926064;29;20102;-91
2021/10/04 00:39:46;;;;;;;3.50;1.60;;;11.40;99.90;;;;;;4954451;29;20058;-90
2021/10/04 00:42:13;;;;;;;4.93;1.95;;;11.40;99.90;;;;;;4954516;29;20019;-91
2021/10/04 00:44:44;;;;;;;4.63;2.15;;;11.40;99.90;;;;;;4939490;28;20046;-91
2021/10/04 00:47:10;;;;;;;3.55;1.88;;;11.40;99.90;;;;;;4940570;28;20334;-91
2021/10/04 00:49:36;;;;;;;4.15;1.88;;;11.40;99.90;;;;;;4957477;28;20038;-91
2021/10/04 00:52:01;;;;;;;5.60;1.60;;;11.40;99.90;;;;;;4974101;28;20031;-92
2021/10/04 00:54:27;;;;;;;3.70;1.58;;;11.40;99.90;;;;;;4941635;29;20027;-91
2021/10/04 00:56:53;;;;;;;4.47;1.80;;;11.50;99.90;;;;;;4937049;29;20027;-90
2021/10/04 00:59:20;;;;;;;4.35;1.90;;;11.40;99.90;;;;;;4938111;29;20547;-92
2021/10/04 01:01:49;;;;;;;5.20;1.60;;;11.40;99.90;;;;;;4937541;29;20035;-89
2021/10/04 01:04:15;;;;;;;5.13;1.60;;;11.40;99.90;;;;;;4955284;29;20110;-91
2021/10/04 01:06:41;;;;;;;3.95;1.70;;;11.40;99.90;;;;;;4924003;28;20142;-90
2021/10/04 01:09:10;;;;;;;5.90;2.20;;;11.40;99.90;;;;;;4940885;28;20122;-91
2021/10/04 01:11:36;;;;;;;3.55;1.90;;;11.40;99.90;;;;;;4947514;29;20526;-91
2021/10/04 01:14:02;;;;;;;4.72;2.00;;;11.40;99.90;;;;;;4921679;29;20027;-91
2021/10/04 01:16:31;;;;;;;5.68;2.58;;;11.40;99.90;;;;;;4924012;29;20692;-90
2021/10/04 01:18:56;;;;;;;3.47;1.90;;;11.40;99.90;;;;;;4937120;29;20028;-91
2021/10/04 01:21:22;;;;;;;4.50;1.90;;;11.40;99.90;;;;;;4953790;29;20031;-90
2021/10/04 01:23:48;;;;;;;4.13;1.90;;;11.40;99.90;;;;;;4937660;29;20739;-90
2021/10/04 01:26:14;;;;;;;4.00;1.70;;;11.40;99.90;;;;;;4937676;29;20460;-90
2021/10/04 01:28:40;;;;;;;5.00;1.75;;;11.40;99.90;;;;;;4924651;29;20023;-92
2021/10/04 01:31:06;;;;;;;2.25;1.52;;;11.40;99.90;;;;;;4941422;29;20475;-91
2021/10/04 01:33:32;;;;;;;3.35;1.35;;;11.40;99.90;;;;;;4942257;29;20037;-93
2021/10/04 01:36:36;;;;;;;3.15;1.50;;;11.40;99.90;;;;;;4941494;29;20023;-92
2021/10/04 01:39:02;;;;;;;;;;;11.40;99.90;;;;;;4940669;29;20024;-91
2021/10/04 01:48:57;;;;;;;4.13;1.40;;;11.40;99.90;;;;;;4965025;28;20022;-92
2021/10/04 01:51:23;;;;;;;3.40;1.40;;;11.40;99.90;;;;;;4957598;29;20491;-90
2021/10/04 01:53:50;;;;;;;3.00;1.10;;;11.40;99.90;;;;;;4957166;28;20071;-90
2021/10/04 01:56:17;;;;;;;3.35;1.35;;;11.40;99.90;;;;;;4958712;28;20023;-91
2021/10/04 01:58:42;;;;;;;3.08;1.35;;;11.40;99.90;;;;;;4956198;28;20066;-90
2021/10/04 02:01:11;;;;;;;3.33;1.50;;;11.40;99.90;;;;;;4955834;28;20411;-90
2021/10/04 02:03:37;;;;;;;3.15;1.42;;;11.40;99.90;;;;;;4956703;28;20028;-90
2021/10/04 02:06:03;;;;;;;3.85;1.30;;;11.40;99.90;;;;;;4957170;28;20035;-90
2021/10/04 02:08:28;;;;;;;7.40;1.50;;;11.40;99.90;;;;;;4956596;28;20023;-89
2021/10/04 02:10:55;;;;;;;2.53;1.00;;;11.50;99.90;;;;;;4957377;29;20107;-90
2021/10/04 02:13:24;;;;;;;3.10;1.20;;;11.50;99.90;;;;;;4958201;28;20023;-90
2021/10/04 02:15:50;;;;;;;2.17;1.17;;;11.50;99.90;;;;;;4958530;28;20106;-90
2021/10/04 02:18:17;;;;;;;2.80;1.20;;;11.50;99.90;;;;;;4956447;29;20036;-91
2021/10/04 02:20:46;;;;;;;4.50;1.58;;;11.50;99.90;;;;;;4957119;29;20035;-91
2021/10/04 02:23:12;;;;;;;2.83;1.00;;;11.50;99.90;;;;;;4973476;28;20020;-91
2021/10/04 02:25:43;;;;;;;2.50;1.30;;;11.50;99.90;;;;;;4958418;28;20023;-90
2021/10/04 02:28:10;;;;;;;4.22;1.17;;;11.50;99.90;;;;;;4956936;29;20102;-90
2021/10/04 02:30:36;;;;;;;2.10;1.00;;;11.50;99.90;;;;;;4973127;28;20046;-90
2021/10/04 02:33:03;;;;;;;4.68;1.60;;;11.40;99.90;;;;;;4957034;29;20027;-91
2021/10/04 02:35:29;;;;;;;4.90;1.15;;;11.40;99.90;;;;;;4956845;28;20109;-90
2021/10/04 02:37:56;;;;;;;2.63;0.93;;;11.40;99.90;;;;;;4957576;28;20082;-90
2021/10/04 02:40:23;;;;;;;6.03;1.20;;;11.40;99.90;;;;;;4956986;29;20046;-90
2021/10/04 02:42:50;;;;;;;3.42;1.25;;;11.40;99.90;;;;;;4973149;28;20027;-89
2021/10/04 02:45:17;;;;;;;1.38;0.98;;;11.40;99.90;;;;;;4951310;28;20385;-91
2021/10/04 02:47:44;;;;;;;3.63;1.25;;;11.40;99.90;;;;;;4921022;29;20083;-90
2021/10/04 02:50:13;;;;;;;3.75;1.38;;;11.40;99.90;;;;;;4920460;29;20071;-90
2021/10/04 02:52:39;;;;;;;3.00;1.40;;;11.40;99.90;;;;;;4905453;29;20099;-89
2021/10/04 02:55:06;;;;;;;4.50;1.27;;;11.40;99.90;;;;;;4921334;29;20020;-91
2021/10/04 02:57:33;;;;;;;3.35;0.93;;;11.40;99.90;;;;;;4938309;29;20039;-89
2021/10/04 03:00:00;;;;;;;2.70;1.02;;;11.40;99.90;;;;;;4921259;29;20039;-90
2021/10/04 03:02:27;;;;;;;3.88;1.30;;;11.40;99.90;;;;;;4921557;29;20028;-90
2021/10/04 03:04:53;;;;;;;3.10;0.90;;;11.40;99.90;;;;;;4921530;29;20047;-91
2021/10/04 03:07:19;;;;;;;3.20;1.08;;;11.40;99.90;;;;;;4905520;29;20032;-90
2021/10/04 03:09:46;;;;;;;2.65;1.20;;;11.40;99.90;;;;;;4921295;29;20055;-90
2021/10/04 03:12:12;;;;;;;3.88;1.00;;;11.40;99.90;;;;;;4921076;29;20028;-90
2021/10/04 03:14:37;;;;;;;3.13;0.95;;;11.40;99.90;;;;;;4920702;29;20400;-91
2021/10/04 03:17:04;;;;;;;3.63;1.25;;;11.40;99.90;;;;;;4904988;29;20158;-89
2021/10/04 03:19:31;;;;;;;5.70;1.27;;;11.50;99.90;;;;;;4921301;29;20032;-90
2021/10/04 03:21:57;;;;;;;3.83;1.40;;;11.50;99.90;;;;;;4921184;29;20012;-90
2021/10/04 03:24:22;;;;;;;2.90;1.08;;;11.50;99.90;;;;;;4905029;29;20024;-89
2021/10/04 03:26:48;;;;;;;3.15;1.23;;;11.60;99.90;;;;;;4921115;29;20098;-91
2021/10/04 03:29:16;;;;;;;3.03;1.23;;;11.60;99.90;;;;;;4921048;29;20535;-90
2021/10/04 03:31:44;;;;;;;1.00;0.70;;;11.60;99.90;;;;;;4920798;29;20051;-91
2021/10/04 03:34:10;;;;;;;3.10;1.10;;;11.60;99.90;;;;;;4920815;29;20022;-90
2021/10/04 03:36:36;;;;;;;4.75;1.70;;;11.60;99.90;;;;;;4920721;29;20023;-91
2021/10/04 03:39:02;;;;;;;3.42;1.10;;;11.60;99.90;;;;;;4921083;29;20019;-90
2021/10/04 03:41:28;;;;;;;4.82;1.13;;;11.60;99.90;;;;;;4920678;29;20023;-89
2021/10/04 03:43:55;;;;;;;3.00;1.15;;;11.60;99.90;;;;;;4904844;29;20083;-89
2021/10/04 03:46:21;;;;;;;4.28;1.23;;;11.60;99.90;;;;;;4930207;29;20074;-89
2021/10/04 03:48:46;;;;;;;2.83;0.70;;;11.60;99.90;;;;;;4955536;28;20026;-89
2021/10/04 03:51:12;;;;;;;4.70;0.98;;;11.60;99.90;;;;;;4956232;28;20031;-89
2021/10/04 03:53:39;;;;;;;3.00;0.85;;;11.60;99.90;;;;;;4956494;28;20045;-89
2021/10/04 03:56:05;;;;;;;2.53;1.13;;;11.60;99.90;;;;;;4955332;28;20047;-89
2021/10/04 03:58:31;;;;;;;5.15;1.25;;;11.60;99.90;;;;;;4955708;29;20064;-89
2021/10/04 04:00:56;;;;;;;3.13;1.30;;;11.60;99.90;;;;;;4955128;29;20404;-90
2021/10/04 04:03:22;;;;;;;2.53;0.80;;;11.60;99.90;;;;;;4956261;28;20062;-91
2021/10/04 04:05:48;;;;;;;6.40;0.90;;;11.60;99.90;;;;;;4955388;28;20097;-90
2021/10/04 04:08:13;;;;;;;2.33;0.90;;;11.60;99.90;;;;;;4955760;28;20448;-90
2021/10/04 04:10:39;;;;;;;2.70;0.90;;;11.60;99.90;;;;;;4971323;28;20027;-90
2021/10/04 04:13:08;;;;;;;3.20;0.85;;;11.60;99.90;;;;;;4955412;28;20034;-90
2021/10/04 04:15:35;;;;;;;3.00;0.98;;;11.60;99.90;;;;;;4955675;28;20035;-89
2021/10/04 04:18:01;;;;;;;3.92;0.95;;;11.60;99.90;;;;;;4954879;28;20046;-89
2021/10/04 04:20:26;;;;;;;2.97;1.08;;;11.60;99.90;;;;;;4955540;29;20043;-90
2021/10/04 04:22:52;;;;;;;4.78;1.77;;;11.70;99.90;;;;;;4971469;28;20110;-89
2021/10/04 04:25:18;;;;;;;2.45;0.90;;;11.60;99.90;;;;;;4956620;28;20030;-90
2021/10/04 04:27:44;;;;;;;3.45;1.15;;;11.60;99.90;;;;;;4956639;29;20046;-90
2021/10/04 04:30:12;;;;;;;2.40;0.90;;;11.70;99.90;;;;;;4956494;28;20027;-90
2021/10/04 04:32:41;;;;;;;3.03;1.20;;;11.60;99.90;;;;;;4955146;29;20027;-89
2021/10/04 04:35:08;;;;;;;1.70;0.90;;;11.60;99.90;;;;;;4955242;29;20031;-89
2021/10/04 04:37:37;;;;;;;2.72;0.90;;;11.60;99.90;;;;;;4955379;28;20015;-90
2021/10/04 04:40:05;;;;;;;2.42;0.90;;;11.70;99.90;;;;;;4955631;28;20023;-90
2021/10/04 04:42:31;;;;;;;3.20;1.00;;;11.70;99.90;;;;;;4955525;28;20471;-90
2021/10/04 04:44:57;;;;;;;3.80;0.85;;;11.60;99.90;;;;;;4955046;29;20125;-90
2021/10/04 04:47:23;;;;;;;3.30;0.80;;;11.60;99.90;;;;;;4955031;29;20019;-90
2021/10/04 04:49:50;;;;;;;3.85;1.50;;;11.60;99.90;;;;;;4956035;28;20027;-90
2021/10/04 04:52:15;;;;;;;3.13;1.25;;;11.60;99.90;;;;;;4954916;29;20030;-90
2021/10/04 04:54:41;;;;;;;4.70;1.30;;;11.60;99.90;;;;;;4955199;28;20396;-90
2021/10/04 04:57:07;;;;;;;4.65;1.15;;;11.70;99.90;;;;;;4954964;28;20448;-90
2021/10/04 04:59:34;;;;;;;2.35;1.02;;;11.60;99.90;;;;;;4949128;28;20046;-92
2021/10/04 05:02:01;;;;;;;6.55;1.15;;;11.60;99.90;;;;;;4954239;28;21369;-91
2021/10/04 05:04:31;;;;;;;4.60;1.35;;;11.60;99.90;;;;;;4960965;28;20050;-91
2021/10/04 05:06:58;;;;;;;4.22;0.82;;;11.60;99.90;;;;;;4957258;28;20037;-91
2021/10/04 05:09:25;;;;;;;4.80;1.10;;;11.60;99.90;;;;;;4973652;28;20363;-91
2021/10/04 05:11:52;;;;;;;1.67;0.88;;;11.60;99.90;;;;;;4940316;28;20514;-91
2021/10/04 05:14:26;;;;;;;4.32;1.00;;;11.60;99.90;;;;;;4975258;28;20467;-92
2021/10/04 05:16:57;;;;;;;3.65;1.23;;;11.60;99.90;;;;;;4958840;28;20161;-91
2021/10/04 05:19:24;;;;;;;2.00;0.98;;;11.60;99.90;;;;;;4943905;28;20027;-91
2021/10/04 05:21:50;;;;;;;4.63;1.13;;;11.60;99.90;;;;;;4959623;28;20085;-91
2021/10/04 05:24:17;;;;;;;3.38;1.10;;;11.60;99.90;;;;;;4958925;28;20011;-91
2021/10/04 05:26:44;;;;;;;1.65;0.77;;;11.60;99.90;;;;;;4959409;28;20023;-91
2021/10/04 05:29:10;;;;;;;2.08;0.93;;;11.50;99.90;;;;;;4942642;28;20473;-90
2021/10/04 05:31:37;;;;;;;3.25;1.13;;;11.50;99.90;;;;;;4958539;28;20031;-92
2021/10/04 05:34:05;;;;;;;4.07;1.20;;;11.50;99.90;;;;;;4942966;28;20448;-90
2021/10/04 05:36:32;;;;;;;4.63;1.83;;;11.50;99.90;;;;;;4959233;28;20065;-89
2021/10/04 05:39:00;;;;;;;2.95;0.88;;;11.50;99.90;;;;;;4959040;28;20149;-90
2021/10/04 05:41:32;;;;;;;2.88;0.93;;;11.60;99.90;;;;;;4959030;28;20023;-90
2021/10/04 05:43:58;;;;;;;3.45;0.88;;;11.60;99.90;;;;;;4975503;28;20110;-89
2021/10/04 05:46:25;;;;;;;4.22;0.98;;;11.60;99.90;;;;;;4960975;28;20063;-91
2021/10/04 05:48:52;;;;;;;3.35;1.00;;;11.60;99.90;;;;;;4956211;29;20154;-92
2021/10/04 05:51:20;;;;;;;4.25;1.17;;;11.60;99.90;;;;;;4941047;29;20033;-90
2021/10/04 05:53:46;;;;;;;2.67;1.05;;;11.50;99.90;;;;;;4925209;29;20039;-91
2021/10/04 05:56:12;;;;;;;3.30;1.20;;;11.60;99.90;;;;;;4941631;29;20026;-91
2021/10/04 05:58:38;;;;;;;3.53;1.08;;;11.50;99.90;;;;;;4941017;29;20472;-90
2021/10/04 06:01:04;;;;;;;6.05;1.38;;;11.60;99.90;;;;;;4934189;29;20110;-90
2021/10/04 06:03:30;;;;;;;3.63;1.30;;;11.60;99.90;;;;;;4940019;29;20019;-88
2021/10/04 06:06:00;;;;;;;7.43;0.93;;;11.60;99.90;;;;;;4969953;28;20038;-90
2021/10/04 06:08:26;;;;;;;3.28;1.17;;;11.60;99.90;;;;;;4950501;28;20038;-90
2021/10/04 06:10:53;;;;;;;3.55;1.00;;;11.60;99.90;;;;;;4965311;28;20455;-90
2021/10/04 06:13:18;;;;;;;2.80;0.90;;;11.60;99.90;;;;;;4939511;29;20039;-90
2021/10/04 06:15:45;;;;;;;4.07;1.00;;;11.60;99.90;;;;;;4955458;29;20435;-91
2021/10/04 06:18:12;;;;;;;3.60;1.30;;;11.60;99.90;;;;;;4939770;29;20372;-91
2021/10/04 06:20:41;;;;;;;5.93;1.58;;;11.70;99.90;;;;;;4957490;29;20030;-90
2021/10/04 06:23:08;;;;;;;4.13;1.42;;;11.70;99.90;;;;;;4958724;28;20015;-90
2021/10/04 06:25:35;;;;;;;4.15;1.00;;;11.70;99.90;;;;;;4939861;29;20034;-90
2021/10/04 06:28:04;;;;;;;4.32;1.10;;;11.70;99.90;;;;;;4956492;29;20106;-91
2021/10/04 06:30:31;;;;;;;6.10;1.35;;;11.70;99.90;;;;;;4940283;29;20031;-91
2021/10/04 06:32:57;;;;;;;4.63;1.10;;;11.70;99.90;;;;;;4939273;29;20024;-90
2021/10/04 06:35:23;;;;;;;4.43;1.65;;;11.70;99.90;;;;;;4955712;29;20027;-90
2021/10/04 06:37:50;;;;;;;2.97;1.00;;;11.70;99.90;;;;;;4938451;29;20363;-89
2021/10/04 06:40:17;;;;;;;4.57;1.33;;;11.80;99.90;;;;;;4939652;29;20027;-90
2021/10/04 06:42:45;;;;;;;5.03;1.00;;;11.80;99.90;;;;;;4956477;29;20023;-89
2021/10/04 06:45:10;;;;;;;5.47;1.08;;;11.80;99.90;;;;;;4931237;28;20046;-89
2021/10/04 06:47:36;;;;;;;4.28;1.08;;;11.80;99.90;;;;;;4959075;28;20017;-89
2021/10/04 06:50:03;;;;;;;2.47;1.20;;;11.90;99.90;;;;;;4959296;28;20025;-90
2021/10/04 06:52:30;;;;;;;6.55;1.30;;;11.90;99.90;;;;;;4957996;28;20061;-89
2021/10/04 06:54:57;;;;;;;3.47;1.10;;;11.90;99.90;;;;;;4960463;28;20421;-91
2021/10/04 06:57:23;;;;;;;4.88;1.20;;;12.00;99.90;;;;;;4970239;28;20015;-88
2021/10/04 06:59:49;;;;;;;3.17;0.90;;;12.00;99.90;;;;;;4959108;28;20030;-90
2021/10/04 07:02:15;;;;;;;1.58;0.90;;;12.00;99.90;;;;;;4963028;28;20360;-92
2021/10/04 07:04:41;;;;;;;2.63;0.95;;;12.00;99.90;;;;;;4958413;28;20019;-91
2021/10/04 07:07:07;;;;;;;4.70;1.50;;;12.10;99.90;;;;;;4958950;28;20026;-89
2021/10/04 07:09:35;;;;;;;3.63;1.08;;;12.10;99.90;;;;;;4958678;28;20026;-90
2021/10/04 07:12:01;;;;;;;5.43;1.65;;;12.10;99.90;;;;;;4963538;28;20363;-90
2021/10/04 07:14:27;;;;;;;1.77;0.90;;;12.10;99.90;;;;;;4954802;28;20057;-89
2021/10/04 07:16:53;;;;;;;3.20;1.13;;;12.20;99.90;;;;;;4958696;28;20033;-88
2021/10/04 07:19:20;;;;;;;3.38;1.00;;;12.10;99.90;;;;;;4958400;28;20109;-90
2021/10/04 07:21:51;;;;;;;3.78;1.10;;;12.10;99.90;;;;;;4958875;28;20046;-89
2021/10/04 07:24:18;;;;;;;4.55;1.20;;;12.10;99.90;;;;;;4958562;28;20042;-90
2021/10/04 07:26:45;;;;;;;3.15;1.17;;;12.10;99.90;;;;;;4941270;28;20031;-90
2021/10/04 07:29:10;;;;;;;3.10;1.10;;;12.00;99.90;;;;;;4958697;28;20102;-89
2021/10/04 07:31:37;;;;;;;3.53;1.15;;;12.00;99.90;;;;;;4970684;28;20111;-88
2021/10/04 07:34:06;;;;;;;3.80;1.17;;;12.10;99.90;;;;;;4958851;28;20459;-89
2021/10/04 07:36:34;;;;;;;4.57;1.10;;;12.10;99.90;;;;;;4958288;28;20047;-89
2021/10/04 07:39:00;;;;;;;2.83;1.20;;;12.20;99.90;;;;;;4956877;29;20019;-89
2021/10/04 07:41:25;;;;;;;3.88;1.10;;;12.20;99.90;;;;;;4958098;28;20143;-89
2021/10/04 07:43:51;;;;;;;3.63;1.10;;;12.20;99.90;;;;;;4958628;28;20489;-89
2021/10/04 07:46:17;;;;;;;4.78;1.00;;;12.30;99.90;;;;;;4958296;28;20544;-90
2021/10/04 07:48:45;;;;;;;2.75;0.93;;;12.30;99.90;;;;;;4974786;28;20038;-90
2021/10/04 07:51:15;;;;;;;2.33;0.90;;;12.30;99.90;;;;;;4958973;28;20019;-90
2021/10/04 07:53:41;;;;;;;5.53;1.25;;;12.30;99.90;;;;;;4964430;28;20018;-89
2021/10/04 07:56:08;;;;;;;2.58;1.17;;;12.30;99.90;;;;;;4979018;28;20062;-90
2021/10/04 07:58:35;;;;;;;3.53;1.58;;;12.30;99.90;;;;;;4963980;28;20023;-90
2021/10/04 08:01:02;;;;;;;4.63;1.00;;;12.20;99.90;;;;;;4962782;28;20019;-89
2021/10/04 08:03:29;;;;;;;2.30;0.80;;;12.20;99.90;;;;;;4945542;28;20029;-90
2021/10/04 08:05:55;;;;;;;2.75;1.05;;;12.20;99.90;;;;;;4981128;28;20794;-89
2021/10/04 08:08:21;;;;;;;3.47;1.00;;;12.20;99.90;;;;;;4961944;28;20022;-89
2021/10/04 08:10:47;;;;;;;1.85;1.05;;;12.20;99.90;;;;;;4959930;28;20035;-89
2021/10/04 08:13:13;;;;;;;5.15;1.38;;;12.20;99.90;;;;;;4963567;28;20015;-88
2021/10/04 08:15:40;;;;;;;3.85;1.20;;;12.40;99.90;;;;;;4965156;28;20474;-87
2021/10/04 08:18:06;;;;;;;3.70;1.17;;;12.50;99.90;;;;;;4964764;28;20029;-88
2021/10/04 08:20:32;;;;;;;7.97;1.20;;;12.60;99.90;;;;;;4962612;28;20110;-89
2021/10/04 08:22:59;;;;;;;7.40;1.42;;;12.70;99.90;;;;;;4986307;28;20042;-89
2021/10/04 08:25:25;;;;;;;5.07;1.60;;;12.80;99.90;;;;;;4963165;28;20046;-90
2021/10/04 08:27:51;;;;;;;6.50;1.45;;;12.90;99.90;;;;;;4959197;28;20447;-90
2021/10/04 08:30:17;;;;;;;3.83;1.08;;;13.00;99.90;;;;;;4953156;28;20042;-88
2021/10/04 08:32:45;;;;;;;5.07;1.20;;;13.10;99.90;;;;;;4964118;28;20445;-89
2021/10/04 08:35:13;;;;;;;4.32;1.15;;;13.20;99.90;;;;;;4957488;28;20031;-91
2021/10/04 08:37:40;;;;;;;6.05;1.08;;;13.30;99.90;;;;;;4956230;28;20463;-90
2021/10/04 08:40:17;;;;;;;4.72;1.50;;;13.30;99.90;;;;;;4958207;28;20050;-89
2021/10/04 08:42:44;;;;;;;4.20;1.10;;;13.30;99.90;;;;;;4949897;28;20515;-89
2021/10/04 08:45:11;;;;;;;3.95;1.33;;;13.40;99.90;;;;;;4962298;28;20063;-89
2021/10/04 08:47:39;;;;;;;4.50;1.15;;;13.50;99.90;;;;;;4958031;28;20026;-90
2021/10/04 08:50:16;;;;;;;5.45;1.33;;;13.60;99.90;;;;;;4978838;28;20073;-87
2021/10/04 08:52:43;;;;;;;6.20;1.40;;;13.70;99.90;;;;;;4945318;28;20033;-88
2021/10/04 08:55:12;;;;;;;3.78;1.10;;;13.70;99.90;;;;;;4957619;28;20031;-89
2021/10/04 08:57:38;;;;;;;3.83;1.00;;;13.80;99.90;;;;;;4960846;28;20019;-88
2021/10/04 09:00:07;;;;;;;5.47;1.10;;;13.90;99.90;;;;;;4959486;28;20470;-88
2021/10/04 09:02:34;;;;;;;4.53;1.17;;;14.00;99.90;;;;;;4943367;28;20076;-88
2021/10/04 09:05:23;;;;;;;3.70;1.20;;;14.10;99.90;;;;;;4945236;28;20030;-89
2021/10/04 09:07:59;;;;;;;6.13;1.00;;;14.20;99.90;;;;;;4960728;28;20367;-88
2021/10/04 09:10:34;;;;;;;5.60;1.50;;;14.30;99.90;;;;;;4959089;28;20029;-88
2021/10/04 09:13:19;;;;;;;3.25;1.20;;;14.40;99.90;;;;;;4958830;28;20031;-88
2021/10/04 09:15:47;;;;;;;4.82;1.27;;;14.60;99.90;;;;;;4975116;28;20033;-87
2021/10/04 09:18:27;;;;;;;3.75;1.08;;;15.70;99.90;;;;;;4959109;28;20027;-89
2021/10/04 09:20:55;;;;;;;4.70;1.10;;;17.20;99.90;;;;;;4976213;28;20085;-87
2021/10/04 09:23:52;;;;;;;3.50;1.15;;;18.50;99.90;;;;;;4956804;28;20039;-88
2021/10/04 09:26:31;;;;;;;4.63;1.00;;;19.80;99.90;;;;;;4960220;28;20573;-86
2021/10/04 09:29:08;;;;;;;4.50;1.55;;;20.60;99.90;;;;;;4971018;28;20053;-86
2021/10/04 09:31:38;;;;;;;4.95;1.10;;;21.10;99.90;;;;;;4975436;28;20023;-87
2021/10/04 09:34:08;;;;;;;5.43;1.02;;;21.40;99.90;;;;;;4977482;28;20039;-87
2021/10/04 09:36:57;;;;;;;4.32;1.38;;;21.80;99.90;;;;;;4955345;28;20033;-86
2021/10/04 09:39:36;;;;;;;2.80;0.90;;;22.40;99.90;;;;;;4961970;28;20019;-88
2021/10/04 09:42:08;;;;;;;3.15;0.80;;;22.50;99.90;;;;;;4953837;28;20027;-88
2021/10/04 09:44:50;;;;;;;3.42;1.00;;;22.90;99.90;;;;;;4945740;28;20024;-88
2021/10/04 09:47:23;;;;;;;5.53;1.00;;;23.30;99.90;;;;;;4954954;28;20041;-86
2021/10/04 09:50:05;;;;;;;2.90;0.85;;;23.40;99.90;;;;;;4976666;28;20037;-86
2021/10/04 09:53:15;;;;;;;5.43;0.80;;;23.50;99.90;;;;;;4959995;28;20023;-87
2021/10/04 09:55:44;;;;;;;3.65;1.00;;;23.70;99.90;;;;;;4898027;29;20362;-87
2021/10/04 09:58:15;;;;;;;2.83;0.90;;;24.00;99.90;;;;;;4882943;29;20175;-87
2021/10/04 10:01:04;;;;;;;3.75;0.75;;;24.10;99.80;;;;;;4929292;28;20061;-86
2021/10/04 10:03:41;;;;;;;6.10;1.05;;;24.00;99.90;;;;;;4968022;28;20035;-86
2021/10/04 10:06:08;;;;;;;3.95;1.13;;;24.00;99.80;;;;;;4947099;28;20023;-85
2021/10/04 10:08:36;;;;;;;3.20;0.80;;;23.70;99.40;;;;;;4949332;29;20027;-85
2021/10/04 10:11:06;;;;;;;2.90;0.82;;;23.60;99.70;;;;;;4941748;28;20043;-84
2021/10/04 10:13:34;;;;;;;2.70;0.70;;;23.70;99.70;;;;;;4945147;28;20022;-86
2021/10/04 10:16:50;;;;;;;4.97;1.02;;;23.80;99.50;;;;;;4983806;28;20102;-86
2021/10/04 10:19:23;;;;;;;3.40;0.60;;;24.00;99.00;;;;;;4938811;29;20027;-85
2021/10/04 10:22:10;;;;;;;2.95;0.70;;;24.50;98.80;;;;;;4933957;29;20038;-86
2021/10/04 10:24:39;;;;;;;4.10;0.90;;;25.10;98.40;;;;;;4931334;28;20031;-84
2021/10/04 10:27:13;;;;;;;5.28;1.05;;;25.40;97.90;;;;;;4957813;28;20019;-85
2021/10/04 10:29:40;;;;;;;4.50;1.13;;;25.30;95.30;;;;;;4958043;28;20030;-86
2021/10/04 10:32:08;;;;;;;3.58;0.80;;;25.20;95.60;;;;;;4950685;28;20026;-86
2021/10/04 10:34:38;;;;;;;1.95;0.60;;;25.20;95.80;;;;;;4956000;28;20122;-86
2021/10/04 10:37:09;;;;;;;2.25;0.57;;;25.20;95.10;;;;;;4955430;29;20101;-85
2021/10/04 10:40:10;;;;;;;4.93;0.90;;;25.60;95.70;;;;;;4954755;29;20022;-86
2021/10/04 10:42:59;;;;;;;4.38;0.80;;;26.30;96.20;;;;;;4952679;28;20039;-86
2021/10/04 10:45:40;;;;;;;2.53;0.70;;;26.30;93.60;;;;;;4959408;28;20043;-88
2021/10/04 10:48:12;;;;;;;4.57;0.77;;;26.20;94.80;;;;;;4956235;28;20031;-87
2021/10/04 10:50:45;;;;;;;2.92;0.55;;;26.20;94.90;;;;;;4956816;28;20019;-88
2021/10/04 10:53:24;;;;;;;3.35;0.80;;;25.70;94.50;;;;;;4955169;28;20038;-87
2021/10/04 10:56:12;;;;;;;3.60;0.90;;;25.70;94.40;;;;;;4957693;28;20050;-88
2021/10/04 10:58:39;;;;;;;2.80;0.65;;;26.20;94.40;;;;;;4948359;28;20486;-86
2021/10/04 11:01:16;;;;;;;3.92;0.65;;;26.80;94.60;;;;;;4958145;28;20023;-87
2021/10/04 11:03:53;;;;;;;3.95;0.70;;;27.20;94.30;;;;;;4972793;28;20129;-88
2021/10/04 11:06:37;;;;;;;3.42;0.75;;;27.60;93.40;;;;;;4960534;28;20050;-87
2021/10/04 11:09:03;;;;;;;2.78;0.60;;;27.80;93.10;;;;;;4970202;28;20102;-87
2021/10/04 11:11:32;;;;;;;6.97;1.20;;;27.60;90.00;;;;;;4954824;28;20129;-87
2021/10/04 11:14:07;;;;;;;1.33;0.50;;;27.30;90.40;;;;;;4973075;28;20026;-85
2021/10/04 11:16:41;;;;;;;4.97;1.10;;;27.10;90.50;;;;;;4974112;28;20033;-88
2021/10/04 11:19:08;;;;;;;3.95;1.13;;;26.80;87.40;;;;;;4969818;28;20018;-87
2021/10/04 11:21:43;;;;;;;2.30;0.60;;;26.50;88.70;;;;;;4956094;28;20034;-87
2021/10/04 11:24:09;;;;;;;2.85;0.77;;;26.50;88.20;;;;;;4956273;28;20029;-87
2021/10/04 11:26:38;;;;;;;3.70;0.93;;;26.40;89.30;;;;;;4954243;28;20022;-87
2021/10/04 11:29:06;;;;;;;4.55;0.82;;;26.70;89.90;;;;;;4944954;28;20114;-87
2021/10/04 11:31:40;;;;;;;3.17;0.75;;;26.60;87.50;;;;;;4955804;28;20030;-85
2021/10/04 11:34:08;;;;;;;4.68;0.82;;;26.50;88.30;;;;;;4974017;28;20019;-84
2021/10/04 11:36:41;;;;;;;5.38;0.80;;;26.40;88.10;;;;;;4955607;28;20026;-84
2021/10/04 11:39:26;;;;;;;2.58;0.63;;;26.50;89.30;;;;;;4945547;28;20038;-86
2021/10/04 11:42:02;;;;;;;5.95;0.82;;;26.70;90.20;;;;;;4961385;28;20114;-86
2021/10/04 11:44:42;;;;;;;3.40;0.98;;;27.00;88.70;;;;;;4953737;28;20187;-85
2021/10/04 11:47:10;;;;;;;4.90;0.80;;;27.40;87.60;;;;;;4959608;28;20156;-85
2021/10/04 11:49:42;;;;;;;3.85;1.02;;;27.60;86.50;;;;;;4934360;29;20039;-85
2021/10/04 11:52:15;;;;;;;4.53;0.80;;;27.60;84.10;;;;;;4923912;29;20035;-86
2021/10/04 11:54:51;;;;;;;3.63;0.98;;;27.40;85.60;;;;;;4923363;28;20020;-85
2021/10/04 11:57:19;;;;;;;2.83;0.90;;;27.70;85.20;;;;;;4952921;28;20027;-86
2021/10/04 11:59:53;;;;;;;5.70;1.20;;;27.90;86.80;;;;;;4935608;29;20491;-85
2021/10/04 12:02:33;;;;;;;6.22;1.00;;;27.50;85.90;;;;;;4914731;29;20055;-86
2021/10/04 12:05:11;;;;;;;4.22;0.88;;;26.80;86.00;;;;;;4943643;29;20106;-85
2021/10/04 12:07:53;;;;;;;4.30;1.00;;;26.50;89.30;;;;;;4937912;28;20035;-85
2021/10/04 12:10:19;;;;;;;3.92;0.70;;;26.60;86.10;;;;;;4944919;28;20045;-84
2021/10/04 12:12:45;;;;;;;3.63;0.65;;;26.60;86.30;;;;;;4935812;28;20027;-85
2021/10/04 12:15:11;;;;;;;3.75;0.90;;;26.60;83.00;;;;;;4933047;29;20367;-85
2021/10/04 12:17:38;;;;;;;4.13;0.80;;;26.40;84.30;;;;;;4945031;28;20395;-84
2021/10/04 12:20:06;;;;;;;3.22;0.70;;;26.60;85.20;;;;;;4937833;29;20055;-85
2021/10/04 12:22:34;;;;;;;2.55;0.73;;;26.60;84.40;;;;;;4954040;28;20776;-84
2021/10/04 12:25:00;;;;;;;3.08;0.73;;;26.70;85.00;;;;;;4953215;28;20026;-84
2021/10/04 12:27:27;;;;;;;4.25;0.77;;;26.40;83.20;;;;;;4927985;28;20020;-85
2021/10/04 12:30:01;;;;;;;4.00;0.80;;;25.90;85.40;;;;;;4965774;28;20268;-85
2021/10/04 12:32:37;;;;;;;4.15;0.70;;;26.30;87.20;;;;;;4940850;28;20098;-83
2021/10/04 12:35:12;;;;;;;2.90;0.63;;;26.20;86.40;;;;;;4932749;29;20032;-84
2021/10/04 12:38:00;;;;;;;4.50;0.82;;;26.30;86.10;;;;;;4936788;29;20023;-85
2021/10/04 12:40:28;;;;;;;3.42;0.63;;;26.40;81.20;;;;;;4934838;29;20035;-85
2021/10/04 12:43:27;;;;;;;4.38;0.95;;;26.70;84.20;;;;;;4956238;28;20107;-85
2021/10/04 12:46:05;;;;;;;3.33;0.75;;;27.00;83.60;;;;;;4930675;28;20042;-84
2021/10/04 12:48:43;;;;;;;1.83;0.60;;;27.30;84.80;;;;;;4942995;29;20031;-84
2021/10/04 12:51:10;;;;;;;3.63;1.08;;;27.50;83.90;;;;;;4952282;28;20038;-84
2021/10/04 12:53:54;;;;;;;3.47;0.55;;;27.50;82.30;;;;;;4938341;28;20046;-86
2021/10/04 12:56:31;;;;;;;4.00;0.63;;;27.40;80.70;;;;;;4937812;29;20126;-85
2021/10/04 12:59:11;;;;;;;5.55;0.90;;;27.50;81.80;;;;;;4952757;28;20021;-84
2021/10/04 13:02:01;;;;;;;3.40;0.70;;;27.60;79.10;;;;;;4957693;28;20030;-85
2021/10/04 13:04:55;;;;;;;4.65;0.90;;;27.50;80.20;;;;;;4926919;29;20063;-84
2021/10/04 13:07:32;;;;;;;3.05;1.00;;;27.60;81.10;;;;;;4925128;29;20027;-85